sensor_id;sensor_type;location;lat;lon;timestamp;pressure;altitude;pressure_sealevel;temperature;humidity
5905;BME280;2978;42.012;24.880;2023-08-20T00:00:09;98890.38;;;24.90;50.91
5905;BME280;2978;42.012;24.880;2023-08-20T00:02:37;98884.75;;;24.90;50.72
5905;BME280;2978;42.012;24.880;2023-08-20T00:05:03;98880.50;;;24.96;50.40
5905;BME280;2978;42.012;24.880;2023-08-20T00:07:30;98886.59;;;24.98;50.69
5905;BME280;2978;42.012;24.880;2023-08-20T00:09:56;98881.16;;;24.89;51.10
5905;BME280;2978;42.012;24.880;2023-08-20T00:12:21;98867.63;;;24.95;50.56
5905;BME280;2978;42.012;24.880;2023-08-20T00:15:03;98873.09;;;24.88;50.49
5905;BME280;2978;42.012;24.880;2023-08-20T00:17:33;98885.59;;;24.90;50.80
5905;BME280;2978;42.012;24.880;2023-08-20T00:19:59;98874.25;;;24.87;50.66
5905;BME280;2978;42.012;24.880;2023-08-20T00:22:25;98871.44;;;24.87;50.91
5905;BME280;2978;42.012;24.880;2023-08-20T00:24:53;98872.84;;;24.77;51.09
5905;BME280;2978;42.012;24.880;2023-08-20T00:27:18;98864.13;;;24.82;50.80
5905;BME280;2978;42.012;24.880;2023-08-20T00:29:44;98864.34;;;24.93;50.80
5905;BME280;2978;42.012;24.880;2023-08-20T00:32:10;98869.41;;;25.03;50.42
5905;BME280;2978;42.012;24.880;2023-08-20T00:34:35;98872.38;;;25.10;50.01
5905;BME280;2978;42.012;24.880;2023-08-20T00:37:01;98856.25;;;25.07;50.20
5905;BME280;2978;42.012;24.880;2023-08-20T00:39:28;98858.59;;;25.05;50.30
5905;BME280;2978;42.012;24.880;2023-08-20T00:41:54;98872.69;;;25.05;50.26
5905;BME280;2978;42.012;24.880;2023-08-20T00:44:19;98866.59;;;25.03;50.46
5905;BME280;2978;42.012;24.880;2023-08-20T00:46:45;98870.53;;;24.83;50.68
5905;BME280;2978;42.012;24.880;2023-08-20T00:49:10;98864.75;;;24.76;51.14
5905;BME280;2978;42.012;24.880;2023-08-20T00:51:36;98864.91;;;24.83;51.13
5905;BME280;2978;42.012;24.880;2023-08-20T00:54:03;98859.56;;;24.78;51.08
5905;BME280;2978;42.012;24.880;2023-08-20T00:56:29;98872.91;;;24.81;50.91
5905;BME280;2978;42.012;24.880;2023-08-20T00:58:55;98866.19;;;24.85;50.90
5905;BME280;2978;42.012;24.880;2023-08-20T01:01:23;98867.53;;;24.91;50.80
5905;BME280;2978;42.012;24.880;2023-08-20T01:03:49;98860.81;;;24.96;50.50
5905;BME280;2978;42.012;24.880;2023-08-20T01:11:59;98861.13;;;24.75;51.39
5905;BME280;2978;42.012;24.880;2023-08-20T01:14:25;98854.84;;;24.66;51.75
5905;BME280;2978;42.012;24.880;2023-08-20T01:16:50;98858.03;;;24.65;51.69
5905;BME280;2978;42.012;24.880;2023-08-20T01:19:20;98864.81;;;24.64;51.62
5905;BME280;2978;42.012;24.880;2023-08-20T01:22:14;98855.25;;;24.49;52.34
5905;BME280;2978;42.012;24.880;2023-08-20T01:27:39;98859.41;;;24.39;52.49
5905;BME280;2978;42.012;24.880;2023-08-20T01:30:08;98862.22;;;24.39;52.67
5905;BME280;2978;42.012;24.880;2023-08-20T01:32:38;98866.22;;;24.38;52.66
5905;BME280;2978;42.012;24.880;2023-08-20T01:35:12;98857.31;;;24.36;52.58
5905;BME280;2978;42.012;24.880;2023-08-20T01:37:50;98859.88;;;24.26;53.21
5905;BME280;2978;42.012;24.880;2023-08-20T01:40:22;98860.41;;;24.31;53.32
5905;BME280;2978;42.012;24.880;2023-08-20T01:42:47;98857.31;;;24.36;52.83
5905;BME280;2978;42.012;24.880;2023-08-20T01:45:12;98852.34;;;24.30;52.93
5905;BME280;2978;42.012;24.880;2023-08-20T01:47:38;98850.16;;;24.08;53.43
5905;BME280;2978;42.012;24.880;2023-08-20T01:50:04;98855.03;;;23.95;54.39
5905;BME280;2978;42.012;24.880;2023-08-20T01:52:29;98853.19;;;23.87;54.76
5905;BME280;2978;42.012;24.880;2023-08-20T01:54:55;98848.00;;;23.74;54.76
5905;BME280;2978;42.012;24.880;2023-08-20T01:57:20;98846.97;;;23.66;55.17
5905;BME280;2978;42.012;24.880;2023-08-20T01:59:47;98855.50;;;23.70;55.29
5905;BME280;2978;42.012;24.880;2023-08-20T02:02:12;98842.28;;;23.70;54.87
5905;BME280;2978;42.012;24.880;2023-08-20T02:04:38;98857.75;;;23.64;55.03
5905;BME280;2978;42.012;24.880;2023-08-20T02:07:03;98831.28;;;23.50;55.28
5905;BME280;2978;42.012;24.880;2023-08-20T02:09:29;98852.28;;;23.56;55.52
5905;BME280;2978;42.012;24.880;2023-08-20T02:11:54;98841.94;;;23.44;56.30
5905;BME280;2978;42.012;24.880;2023-08-20T02:14:19;98847.16;;;23.30;56.22
5905;BME280;2978;42.012;24.880;2023-08-20T02:16:46;98849.69;;;23.35;56.85
5905;BME280;2978;42.012;24.880;2023-08-20T02:19:11;98842.94;;;23.36;56.51
5905;BME280;2978;42.012;24.880;2023-08-20T02:21:38;98848.53;;;23.36;56.53
5905;BME280;2978;42.012;24.880;2023-08-20T02:24:04;98834.50;;;23.36;56.36
5905;BME280;2978;42.012;24.880;2023-08-20T02:26:29;98845.63;;;23.32;56.83
5905;BME280;2978;42.012;24.880;2023-08-20T02:28:55;98842.00;;;23.32;56.39
5905;BME280;2978;42.012;24.880;2023-08-20T02:31:20;98847.16;;;23.30;56.64
5905;BME280;2978;42.012;24.880;2023-08-20T02:33:45;98849.97;;;23.30;57.03
5905;BME280;2978;42.012;24.880;2023-08-20T02:36:11;98848.88;;;23.34;56.98
5905;BME280;2978;42.012;24.880;2023-08-20T02:38:36;98842.66;;;23.41;56.56
5905;BME280;2978;42.012;24.880;2023-08-20T02:41:02;98843.13;;;23.43;56.27
5905;BME280;2978;42.012;24.880;2023-08-20T02:43:28;98850.22;;;23.53;55.98
5905;BME280;2978;42.012;24.880;2023-08-20T02:45:54;98850.22;;;23.53;55.77
5905;BME280;2978;42.012;24.880;2023-08-20T02:48:19;98858.38;;;23.58;55.93
5905;BME280;2978;42.012;24.880;2023-08-20T02:50:45;98865.34;;;23.48;56.37
5905;BME280;2978;42.012;24.880;2023-08-20T02:53:10;98855.00;;;23.52;55.69
5905;BME280;2978;42.012;24.880;2023-08-20T02:55:36;98848.06;;;23.62;55.88
5905;BME280;2978;42.012;24.880;2023-08-20T02:58:02;98853.41;;;23.67;55.77
5905;BME280;2978;42.012;24.880;2023-08-20T03:00:29;98857.75;;;23.64;55.78
5905;BME280;2978;42.012;24.880;2023-08-20T03:02:55;98850.50;;;23.63;55.80
5905;BME280;2978;42.012;24.880;2023-08-20T03:05:21;98854.50;;;23.62;55.76
5905;BME280;2978;42.012;24.880;2023-08-20T03:07:47;98855.47;;;23.54;55.90
5905;BME280;2978;42.012;24.880;2023-08-20T03:10:13;98866.94;;;23.49;55.90
5905;BME280;2978;42.012;24.880;2023-08-20T03:12:38;98847.41;;;23.53;55.98
5905;BME280;2978;42.012;24.880;2023-08-20T03:15:04;98845.72;;;23.64;55.43
5905;BME280;2978;42.012;24.880;2023-08-20T03:17:29;98857.25;;;23.74;55.52
5905;BME280;2978;42.012;24.880;2023-08-20T03:19:56;98846.03;;;23.74;55.34
5905;BME280;2978;42.012;24.880;2023-08-20T03:22:23;98849.09;;;23.69;55.47
5905;BME280;2978;42.012;24.880;2023-08-20T03:24:48;98847.91;;;23.70;55.21
5905;BME280;2978;42.012;24.880;2023-08-20T03:27:14;98857.66;;;23.61;55.79
5905;BME280;2978;42.012;24.880;2023-08-20T03:29:39;98866.72;;;23.70;55.45
5905;BME280;2978;42.012;24.880;2023-08-20T03:32:05;98857.31;;;23.62;55.50
5905;BME280;2978;42.012;24.880;2023-08-20T03:34:30;98859.91;;;23.55;55.87
5905;BME280;2978;42.012;24.880;2023-08-20T03:36:55;98860.63;;;23.52;55.90
5905;BME280;2978;42.012;24.880;2023-08-20T03:39:21;98851.41;;;23.52;55.58
5905;BME280;2978;42.012;24.880;2023-08-20T03:41:47;98838.16;;;23.52;55.87
5905;BME280;2978;42.012;24.880;2023-08-20T03:44:12;98855.88;;;23.68;55.47
5905;BME280;2978;42.012;24.880;2023-08-20T03:46:37;98852.34;;;23.71;55.25
5905;BME280;2978;42.012;24.880;2023-08-20T03:49:03;98856.06;;;23.75;55.18
5905;BME280;2978;42.012;24.880;2023-08-20T03:51:28;98854.44;;;23.74;55.17
5905;BME280;2978;42.012;24.880;2023-08-20T03:53:54;98860.34;;;23.85;55.27
5905;BME280;2978;42.012;24.880;2023-08-20T03:56:19;98857.00;;;23.95;54.82
5905;BME280;2978;42.012;24.880;2023-08-20T03:58:45;98864.16;;;23.92;54.78
5905;BME280;2978;42.012;24.880;2023-08-20T04:01:10;98861.16;;;23.85;54.94
5905;BME280;2978;42.012;24.880;2023-08-20T04:03:36;98860.34;;;23.85;54.94
5905;BME280;2978;42.012;24.880;2023-08-20T04:06:01;98863.66;;;23.75;54.90
5905;BME280;2978;42.012;24.880;2023-08-20T04:08:27;98864.03;;;23.73;55.32
5905;BME280;2978;42.012;24.880;2023-08-20T04:10:52;98860.22;;;23.66;55.17
5905;BME280;2978;42.012;24.880;2023-08-20T04:13:17;98868.94;;;23.76;55.10
5905;BME280;2978;42.012;24.880;2023-08-20T04:15:44;98874.41;;;23.85;54.74
5905;BME280;2978;42.012;24.880;2023-08-20T04:18:09;98873.97;;;23.98;54.24
5905;BME280;2978;42.012;24.880;2023-08-20T04:20:34;98875.09;;;24.09;54.11
5905;BME280;2978;42.012;24.880;2023-08-20T04:23:00;98871.28;;;24.48;52.93
5905;BME280;2978;42.012;24.880;2023-08-20T04:25:26;98867.19;;;24.62;52.37
5905;BME280;2978;42.012;24.880;2023-08-20T04:27:52;98876.03;;;24.76;51.75
5905;BME280;2978;42.012;24.880;2023-08-20T04:30:17;98871.31;;;24.99;51.38
5905;BME280;2978;42.012;24.880;2023-08-20T04:32:43;98873.09;;;24.88;50.99
5905;BME280;2978;42.012;24.880;2023-08-20T04:35:08;98877.63;;;24.77;51.92
5905;BME280;2978;42.012;24.880;2023-08-20T04:37:35;98863.28;;;24.82;51.45
5905;BME280;2978;42.012;24.880;2023-08-20T04:40:01;98868.53;;;25.18;50.59
5905;BME280;2978;42.012;24.880;2023-08-20T04:42:27;98866.88;;;25.51;49.84
5905;BME280;2978;42.012;24.880;2023-08-20T04:44:52;98866.81;;;25.67;49.11
5905;BME280;2978;42.012;24.880;2023-08-20T04:47:18;98869.03;;;25.58;49.49
5905;BME280;2978;42.012;24.880;2023-08-20T04:49:43;98882.91;;;25.32;50.10
5905;BME280;2978;42.012;24.880;2023-08-20T04:52:09;98876.41;;;25.28;50.27
5905;BME280;2978;42.012;24.880;2023-08-20T04:54:34;98873.88;;;25.23;50.38
5905;BME280;2978;42.012;24.880;2023-08-20T04:56:59;98875.22;;;25.29;50.65
5905;BME280;2978;42.012;24.880;2023-08-20T04:59:25;98874.44;;;25.13;50.90
5905;BME280;2978;42.012;24.880;2023-08-20T05:01:51;98872.31;;;25.06;51.28
5905;BME280;2978;42.012;24.880;2023-08-20T05:04:17;98870.53;;;24.98;51.03
5905;BME280;2978;42.012;24.880;2023-08-20T05:06:42;98872.84;;;25.12;50.72
5905;BME280;2978;42.012;24.880;2023-08-20T05:09:07;98868.97;;;25.20;50.73
5905;BME280;2978;42.012;24.880;2023-08-20T05:11:33;98874.03;;;25.30;50.37
5905;BME280;2978;42.012;24.880;2023-08-20T05:14:00;98874.34;;;25.44;49.86
5905;BME280;2978;42.012;24.880;2023-08-20T05:16:25;98884.97;;;25.50;50.05
5905;BME280;2978;42.012;24.880;2023-08-20T05:18:51;98887.50;;;25.55;50.04
5905;BME280;2978;42.012;24.880;2023-08-20T05:21:16;98882.66;;;25.56;49.83
5905;BME280;2978;42.012;24.880;2023-08-20T05:23:42;98889.25;;;25.64;49.28
5905;BME280;2978;42.012;24.880;2023-08-20T05:26:07;98882.16;;;25.70;49.08
5905;BME280;2978;42.012;24.880;2023-08-20T05:28:33;98890.59;;;25.70;49.23
5905;BME280;2978;42.012;24.880;2023-08-20T05:30:59;98896.88;;;25.82;49.02
5905;BME280;2978;42.012;24.880;2023-08-20T05:33:25;98892.19;;;25.90;48.57
5905;BME280;2978;42.012;24.880;2023-08-20T05:35:50;98879.63;;;26.03;47.99
5905;BME280;2978;42.012;24.880;2023-08-20T05:38:16;98893.16;;;26.16;47.94
5905;BME280;2978;42.012;24.880;2023-08-20T05:40:42;98895.53;;;26.14;47.75
5905;BME280;2978;42.012;24.880;2023-08-20T05:43:08;98896.19;;;26.27;48.12
5905;BME280;2978;42.012;24.880;2023-08-20T05:45:33;98910.97;;;26.20;48.17
5905;BME280;2978;42.012;24.880;2023-08-20T05:47:59;98907.13;;;26.32;47.65
5905;BME280;2978;42.012;24.880;2023-08-20T05:50:25;98903.94;;;26.33;47.83
5905;BME280;2978;42.012;24.880;2023-08-20T05:52:52;98910.72;;;26.29;47.71
5905;BME280;2978;42.012;24.880;2023-08-20T05:55:17;98914.31;;;26.29;48.35
5905;BME280;2978;42.012;24.880;2023-08-20T05:57:43;98914.63;;;26.24;48.36
5905;BME280;2978;42.012;24.880;2023-08-20T06:00:09;98911.63;;;26.36;47.86
5905;BME280;2978;42.012;24.880;2023-08-20T06:02:36;98911.50;;;26.52;47.42
5905;BME280;2978;42.012;24.880;2023-08-20T06:05:02;98907.25;;;26.61;46.89
5905;BME280;2978;42.012;24.880;2023-08-20T06:07:30;98909.00;;;26.47;47.34
5905;BME280;2978;42.012;24.880;2023-08-20T06:09:55;98918.00;;;26.75;46.58
5905;BME280;2978;42.012;24.880;2023-08-20T06:12:22;98919.81;;;26.87;46.43
5905;BME280;2978;42.012;24.880;2023-08-20T06:14:50;98911.41;;;26.90;46.65
5905;BME280;2978;42.012;24.880;2023-08-20T06:17:16;98913.13;;;26.98;45.87
5905;BME280;2978;42.012;24.880;2023-08-20T06:19:42;98913.84;;;27.18;45.68
5905;BME280;2978;42.012;24.880;2023-08-20T06:22:07;98915.13;;;27.24;45.41
5905;BME280;2978;42.012;24.880;2023-08-20T06:24:33;98915.13;;;27.24;45.39
5905;BME280;2978;42.012;24.880;2023-08-20T06:26:58;98916.63;;;27.40;45.51
5905;BME280;2978;42.012;24.880;2023-08-20T06:29:24;98916.63;;;27.40;45.51
5905;BME280;2978;42.012;24.880;2023-08-20T06:31:50;98917.13;;;27.79;44.16
5905;BME280;2978;42.012;24.880;2023-08-20T06:34:16;98914.09;;;27.91;43.72
5905;BME280;2978;42.012;24.880;2023-08-20T06:36:41;98922.41;;;28.14;43.51
5905;BME280;2978;42.012;24.880;2023-08-20T06:39:07;98914.13;;;28.31;43.46
5905;BME280;2978;42.012;24.880;2023-08-20T06:41:33;98916.88;;;28.61;42.90
5905;BME280;2978;42.012;24.880;2023-08-20T06:43:59;98915.88;;;28.87;42.13
5905;BME280;2978;42.012;24.880;2023-08-20T06:46:24;98915.88;;;28.87;42.13
5905;BME280;2978;42.012;24.880;2023-08-20T06:48:50;98929.06;;;29.16;41.57
5905;BME280;2978;42.012;24.880;2023-08-20T06:51:19;98917.81;;;29.30;41.18
5905;BME280;2978;42.012;24.880;2023-08-20T06:53:45;98920.75;;;29.44;40.85
5905;BME280;2978;42.012;24.880;2023-08-20T06:56:11;98926.03;;;29.49;41.11
5905;BME280;2978;42.012;24.880;2023-08-20T06:58:41;98922.31;;;29.38;40.78
5905;BME280;2978;42.012;24.880;2023-08-20T07:01:07;98921.97;;;29.46;40.96
5905;BME280;2978;42.012;24.880;2023-08-20T07:03:38;98930.09;;;29.48;40.83
5905;BME280;2978;42.012;24.880;2023-08-20T07:06:04;98927.63;;;29.43;41.01
5905;BME280;2978;42.012;24.880;2023-08-20T07:08:29;98921.63;;;29.55;40.77
5905;BME280;2978;42.012;24.880;2023-08-20T07:10:55;98912.41;;;29.68;40.72
5905;BME280;2978;42.012;24.880;2023-08-20T07:13:22;98922.69;;;30.08;40.53
5905;BME280;2978;42.012;24.880;2023-08-20T07:15:47;66104.38;;;-143.09;100.00
5905;BME280;2978;42.012;24.880;2023-08-20T07:18:12;66104.38;;;-143.09;100.00
5905;BME280;2978;42.012;24.880;2023-08-20T07:20:39;66104.38;;;-143.09;100.00
5905;BME280;2978;42.012;24.880;2023-08-20T07:23:04;66104.38;;;-143.09;100.00
5905;BME280;2978;42.012;24.880;2023-08-20T07:25:30;66104.38;;;-143.09;100.00
5905;BME280;2978;42.012;24.880;2023-08-20T07:27:56;66104.38;;;-143.09;100.00
5905;BME280;2978;42.012;24.880;2023-08-20T07:30:25;98910.25;;;30.72;38.73
5905;BME280;2978;42.012;24.880;2023-08-20T07:32:50;98921.19;;;30.63;39.08
5905;BME280;2978;42.012;24.880;2023-08-20T07:35:16;98920.81;;;30.65;39.34
5905;BME280;2978;42.012;24.880;2023-08-20T07:37:41;98910.63;;;30.50;39.46
5905;BME280;2978;42.012;24.880;2023-08-20T07:40:07;98919.97;;;30.50;39.42
5905;BME280;2978;42.012;24.880;2023-08-20T07:42:33;98914.28;;;30.43;40.10
5905;BME280;2978;42.012;24.880;2023-08-20T07:44:58;98915.13;;;30.61;39.59
5905;BME280;2978;42.012;24.880;2023-08-20T07:47:23;98914.31;;;30.78;39.38
5905;BME280;2978;42.012;24.880;2023-08-20T07:49:49;98906.25;;;30.80;39.08
5905;BME280;2978;42.012;24.880;2023-08-20T07:52:14;98910.28;;;30.79;39.15
5905;BME280;2978;42.012;24.880;2023-08-20T07:54:46;98915.91;;;30.69;39.59
5905;BME280;2978;42.012;24.880;2023-08-20T07:57:12;98906.97;;;30.56;39.70
5905;BME280;2978;42.012;24.880;2023-08-20T07:59:37;98909.00;;;30.42;39.84
5905;BME280;2978;42.012;24.880;2023-08-20T08:02:06;98915.53;;;30.49;39.73
5905;BME280;2978;42.012;24.880;2023-08-20T08:04:31;98901.34;;;30.49;39.57
5905;BME280;2978;42.012;24.880;2023-08-20T08:06:57;98910.22;;;30.48;39.40
5905;BME280;2978;42.012;24.880;2023-08-20T08:09:30;98905.78;;;30.50;39.78
5905;BME280;2978;42.012;24.880;2023-08-20T08:11:56;98911.06;;;30.59;38.99
5905;BME280;2978;42.012;24.880;2023-08-20T08:14:22;98909.84;;;30.70;39.37
5905;BME280;2978;42.012;24.880;2023-08-20T08:16:48;98909.44;;;30.61;39.16
5905;BME280;2978;42.012;24.880;2023-08-20T08:19:14;98908.63;;;30.57;39.35
5905;BME280;2978;42.012;24.880;2023-08-20T08:21:41;98906.19;;;30.63;39.22
5905;BME280;2978;42.012;24.880;2023-08-20T08:24:06;98900.94;;;30.72;38.97
5905;BME280;2978;42.012;24.880;2023-08-20T08:26:33;98906.25;;;30.87;38.88
5905;BME280;2978;42.012;24.880;2023-08-20T08:28:59;98907.84;;;31.10;38.19
5905;BME280;2978;42.012;24.880;2023-08-20T08:31:25;98908.66;;;31.17;37.85
5905;BME280;2978;42.012;24.880;2023-08-20T08:33:50;98900.53;;;31.16;37.07
5905;BME280;2978;42.012;24.880;2023-08-20T08:36:15;98907.81;;;31.17;37.03
5905;BME280;2978;42.012;24.880;2023-08-20T08:38:42;98894.03;;;31.08;36.47
5905;BME280;2978;42.012;24.880;2023-08-20T08:41:10;98908.22;;;31.19;36.77
5905;BME280;2978;42.012;24.880;2023-08-20T08:43:37;98899.31;;;31.13;36.37
5905;BME280;2978;42.012;24.880;2023-08-20T08:46:06;98904.59;;;31.04;36.24
5905;BME280;2978;42.012;24.880;2023-08-20T08:48:32;98894.44;;;31.07;36.78
5905;BME280;2978;42.012;24.880;2023-08-20T08:50:58;98900.91;;;31.21;36.61
5905;BME280;2978;42.012;24.880;2023-08-20T08:53:24;98906.22;;;31.12;36.94
5905;BME280;2978;42.012;24.880;2023-08-20T08:55:50;98910.25;;;31.22;36.58
5905;BME280;2978;42.012;24.880;2023-08-20T08:58:16;98907.00;;;31.20;37.10
5905;BME280;2978;42.012;24.880;2023-08-20T09:00:41;98909.44;;;31.25;36.17
5905;BME280;2978;42.012;24.880;2023-08-20T09:03:07;98902.13;;;31.38;35.94
5905;BME280;2978;42.012;24.880;2023-08-20T09:05:32;98906.56;;;31.46;36.17
5905;BME280;2978;42.012;24.880;2023-08-20T09:07:57;98899.72;;;31.36;36.09
5905;BME280;2978;42.012;24.880;2023-08-20T09:10:26;98900.06;;;31.49;35.36
5905;BME280;2978;42.012;24.880;2023-08-20T09:12:54;98893.56;;;31.52;35.65
5905;BME280;2978;42.012;24.880;2023-08-20T09:15:20;98889.84;;;31.69;35.73
5905;BME280;2978;42.012;24.880;2023-08-20T09:17:46;98879.28;;;31.73;35.39
5905;BME280;2978;42.012;24.880;2023-08-20T09:20:12;98894.69;;;31.72;35.37
5905;BME280;2978;42.012;24.880;2023-08-20T09:22:37;98882.47;;;31.78;35.34
5905;BME280;2978;42.012;24.880;2023-08-20T09:25:03;98887.34;;;31.85;34.98
5905;BME280;2978;42.012;24.880;2023-08-20T09:27:29;98889.41;;;31.74;34.62
5905;BME280;2978;42.012;24.880;2023-08-20T09:29:55;98884.13;;;31.76;35.21
5905;BME280;2978;42.012;24.880;2023-08-20T09:32:25;98879.25;;;31.80;34.85
5905;BME280;2978;42.012;24.880;2023-08-20T09:34:52;98885.75;;;31.77;33.89
5905;BME280;2978;42.012;24.880;2023-08-20T09:37:23;98884.19;;;31.62;33.85
5905;BME280;2978;42.012;24.880;2023-08-20T09:39:51;98881.75;;;31.60;33.38
5905;BME280;2978;42.012;24.880;2023-08-20T09:42:17;98880.09;;;31.63;33.47
5905;BME280;2978;42.012;24.880;2023-08-20T09:44:45;98878.44;;;31.79;33.55
5905;BME280;2978;42.012;24.880;2023-08-20T09:47:15;98865.34;;;31.96;33.14
5905;BME280;2978;42.012;24.880;2023-08-20T09:49:43;98866.53;;;32.06;33.37
5905;BME280;2978;42.012;24.880;2023-08-20T09:52:11;98871.84;;;32.00;34.13
5905;BME280;2978;42.012;24.880;2023-08-20T09:57:46;98863.41;;;31.75;34.09
5905;BME280;2978;42.012;24.880;2023-08-20T10:00:11;98858.91;;;31.92;34.21
5905;BME280;2978;42.012;24.880;2023-08-20T10:02:38;98859.97;;;32.16;33.98
5905;BME280;2978;42.012;24.880;2023-08-20T10:05:07;98859.47;;;32.28;33.77
5905;BME280;2978;42.012;24.880;2023-08-20T10:07:33;98852.53;;;32.32;33.80
5905;BME280;2978;42.012;24.880;2023-08-20T10:10:00;98854.56;;;32.32;33.62
5905;BME280;2978;42.012;24.880;2023-08-20T10:12:30;98850.84;;;32.38;33.45
5905;BME280;2978;42.012;24.880;2023-08-20T10:14:56;98841.47;;;32.45;33.37
5905;BME280;2978;42.012;24.880;2023-08-20T10:17:29;98845.53;;;32.47;33.20
5905;BME280;2978;42.012;24.880;2023-08-20T10:19:57;98841.38;;;32.55;33.12
5905;BME280;2978;42.012;24.880;2023-08-20T10:22:32;98839.78;;;32.54;33.37
5905;BME280;2978;42.012;24.880;2023-08-20T10:24:57;98846.28;;;32.58;33.90
5905;BME280;2978;42.012;24.880;2023-08-20T10:27:32;98837.28;;;32.63;33.18
5905;BME280;2978;42.012;24.880;2023-08-20T10:29:59;98831.53;;;32.67;33.32
5905;BME280;2978;42.012;24.880;2023-08-20T10:32:47;98839.47;;;32.38;33.08
5905;BME280;2978;42.012;24.880;2023-08-20T10:38:11;98827.59;;;32.50;33.03
5905;BME280;2978;42.012;24.880;2023-08-20T10:40:53;98836.03;;;32.64;33.16
5905;BME280;2978;42.012;24.880;2023-08-20T10:48:38;98818.59;;;32.55;33.54
5905;BME280;2978;42.012;24.880;2023-08-20T10:51:11;98826.72;;;32.60;33.57
5905;BME280;2978;42.012;24.880;2023-08-20T10:53:38;98817.81;;;32.55;33.17
5905;BME280;2978;42.012;24.880;2023-08-20T10:59:07;98824.56;;;32.71;32.53
5905;BME280;2978;42.012;24.880;2023-08-20T11:01:34;98819.28;;;32.73;32.50
5905;BME280;2978;42.012;24.880;2023-08-20T11:04:00;98798.91;;;32.75;32.63
5905;BME280;2978;42.012;24.880;2023-08-20T11:06:31;98796.41;;;32.80;32.27
5905;BME280;2978;42.012;24.880;2023-08-20T11:09:00;98806.47;;;32.95;32.68
5905;BME280;2978;42.012;24.880;2023-08-20T11:11:26;98784.91;;;32.94;31.62
5905;BME280;2978;42.012;24.880;2023-08-20T11:13:51;98799.69;;;33.20;32.26
5905;BME280;2978;42.012;24.880;2023-08-20T11:16:17;98799.94;;;33.32;32.39
5905;BME280;2978;42.012;24.880;2023-08-20T11:18:44;98792.72;;;33.24;31.44
5905;BME280;2978;42.012;24.880;2023-08-20T11:21:10;98786.09;;;33.31;31.08
5905;BME280;2978;42.012;24.880;2023-08-20T11:23:35;98781.53;;;33.40;31.42
5905;BME280;2978;42.012;24.880;2023-08-20T11:26:03;98789.31;;;33.36;31.34
5905;BME280;2978;42.012;24.880;2023-08-20T11:28:28;98783.63;;;33.33;31.81
5905;BME280;2978;42.012;24.880;2023-08-20T11:30:54;98785.16;;;33.41;32.15
5905;BME280;2978;42.012;24.880;2023-08-20T11:33:22;98778.59;;;33.47;31.53
5905;BME280;2978;42.012;24.880;2023-08-20T11:35:47;98781.41;;;33.51;30.88
5905;BME280;2978;42.012;24.880;2023-08-20T11:38:13;98772.94;;;33.44;31.69
5905;BME280;2978;42.012;24.880;2023-08-20T11:40:39;98776.16;;;33.49;30.73
5905;BME280;2978;42.012;24.880;2023-08-20T11:43:05;98767.16;;;33.51;31.56
5905;BME280;2978;42.012;24.880;2023-08-20T11:45:30;98770.28;;;33.60;30.91
5905;BME280;2978;42.012;24.880;2023-08-20T11:47:57;98757.63;;;33.61;31.78
5905;BME280;2978;42.012;24.880;2023-08-20T11:50:23;98770.06;;;33.74;31.00
5905;BME280;2978;42.012;24.880;2023-08-20T11:52:49;98753.22;;;33.83;30.66
5905;BME280;2978;42.012;24.880;2023-08-20T11:55:22;98754.47;;;33.82;31.26
5905;BME280;2978;42.012;24.880;2023-08-20T11:57:52;98755.25;;;33.86;30.92
5905;BME280;2978;42.012;24.880;2023-08-20T12:00:28;98752.41;;;33.86;30.30
5905;BME280;2978;42.012;24.880;2023-08-20T12:02:54;98747.09;;;33.84;30.54
5905;BME280;2978;42.012;24.880;2023-08-20T12:05:21;98744.09;;;33.95;30.24
5905;BME280;2978;42.012;24.880;2023-08-20T12:08:00;98746.47;;;34.00;31.12
5905;BME280;2978;42.012;24.880;2023-08-20T12:10:27;98750.91;;;34.04;30.63
5905;BME280;2978;42.012;24.880;2023-08-20T12:12:54;98745.09;;;34.12;30.40
5905;BME280;2978;42.012;24.880;2023-08-20T12:15:21;98739.09;;;34.29;30.26
5905;BME280;2978;42.012;24.880;2023-08-20T12:20:21;98739.69;;;34.17;30.67
5905;BME280;2978;42.012;24.880;2023-08-20T12:22:47;98734.47;;;34.12;30.23
5905;BME280;2978;42.012;24.880;2023-08-20T12:25:12;98730.00;;;34.11;29.76
5905;BME280;2978;42.012;24.880;2023-08-20T12:27:37;98731.25;;;34.10;30.50
5905;BME280;2978;42.012;24.880;2023-08-20T12:30:03;98723.78;;;34.16;29.81
5905;BME280;2978;42.012;24.880;2023-08-20T12:32:29;98716.28;;;34.26;29.58
5905;BME280;2978;42.012;24.880;2023-08-20T12:34:54;98716.19;;;34.33;29.48
5905;BME280;2978;42.012;24.880;2023-08-20T12:37:20;98710.47;;;34.33;29.37
5905;BME280;2978;42.012;24.880;2023-08-20T12:39:45;98709.09;;;34.41;29.90
5905;BME280;2978;42.012;24.880;2023-08-20T12:42:10;98710.97;;;34.51;29.41
5905;BME280;2978;42.012;24.880;2023-08-20T12:44:36;98712.91;;;34.57;29.90
5905;BME280;2978;42.012;24.880;2023-08-20T12:47:01;98712.09;;;34.57;29.63
5905;BME280;2978;42.012;24.880;2023-08-20T12:49:27;98706.00;;;34.55;29.26
5905;BME280;2978;42.012;24.880;2023-08-20T12:51:52;98698.56;;;34.61;29.68
5905;BME280;2978;42.012;24.880;2023-08-20T12:54:17;98704.41;;;34.73;29.65
5905;BME280;2978;42.012;24.880;2023-08-20T12:56:43;98699.06;;;34.75;29.32
5905;BME280;2978;42.012;24.880;2023-08-20T12:59:09;98699.94;;;34.95;29.61
5905;BME280;2978;42.012;24.880;2023-08-20T13:01:37;98692.97;;;34.96;29.11
5905;BME280;2978;42.012;24.880;2023-08-20T13:04:03;98691.06;;;35.09;29.71
5905;BME280;2978;42.012;24.880;2023-08-20T13:06:32;98681.91;;;35.18;28.72
5905;BME280;2978;42.012;24.880;2023-08-20T13:08:57;98680.03;;;35.28;28.98
5905;BME280;2978;42.012;24.880;2023-08-20T13:11:25;98682.22;;;35.40;28.71
5905;BME280;2978;42.012;24.880;2023-08-20T13:13:51;98662.47;;;35.09;28.92
5905;BME280;2978;42.012;24.880;2023-08-20T13:16:18;98672.34;;;35.05;28.63
5905;BME280;2978;42.012;24.880;2023-08-20T13:18:45;98667.38;;;35.09;29.34
5905;BME280;2978;42.012;24.880;2023-08-20T13:21:13;98670.47;;;35.18;28.66
5905;BME280;2978;42.012;24.880;2023-08-20T13:23:39;98666.25;;;35.23;28.80
5905;BME280;2978;42.012;24.880;2023-08-20T13:26:06;98665.19;;;35.17;28.80
5905;BME280;2978;42.012;24.880;2023-08-20T13:28:32;98654.84;;;34.83;28.86
5905;BME280;2978;42.012;24.880;2023-08-20T13:30:57;98658.28;;;34.75;29.79